Biotrans — JWPN — position and weather

sailwx.info

Track history (hours):
 
Tides and Currents Weather Stations Pressure Air Temp Water Temp Dewpoint Dewpoint Depression Visibility Wind Speed Wind Dir Waves Ship Positions

Biotrans

Last reported at 2018-Feb-21 02:00 UTC. Time now 2018-Feb-21 02:04 UTC.
Position N 67°01' E 013°42'.

Length 55 m; draft 5.5 m.

Type: Cargo ship. MMSI: 259260000.

Date/timePositionNaut miles runAvg speedWind from/ knotsBaromVisibWave heightAir tempDewpointWater temp
2018-Feb-21 02:00N 67°01' E 013°42'5 9.1
2018-Feb-21 01:30N 67°03' E 013°52'2 3.7
2018-Feb-21 01:00N 67°05' E 013°51'0 0.0
2018-Feb-21 00:30N 67°05' E 013°51'0 0.4
2018-Feb-21 00:00N 67°05' E 013°52'4 8.4
2018-Feb-20 23:30N 67°07' E 014°00'5 9.4
2018-Feb-20 23:00N 67°12' E 014°05'5 9.6
2018-Feb-20 22:30N 67°16' E 014°12'5 9.8
2018-Feb-20 22:00N 67°20' E 014°19'5 9.4
2018-Feb-20 21:30N 67°24' E 014°26'5 9.5
2018-Feb-20 21:00N 67°28' E 014°28'5 9.6
2018-Feb-20 20:30N 67°33' E 014°30'5 9.8
2018-Feb-20 20:00N 67°38' E 014°30'5 9.6
2018-Feb-20 19:30N 67°43' E 014°31'5 9.4
2018-Feb-20 19:00N 67°47' E 014°30'5 9.8
2018-Feb-20 18:30N 67°51' E 014°40'5 9.3
2018-Feb-20 18:00N 67°55' E 014°45'5 9.7
2018-Feb-20 17:30N 67°60' E 014°47'5 9.9
2018-Feb-20 17:00N 68°05' E 014°49'510.2
2018-Feb-20 16:30N 68°10' E 014°52'510.1
2018-Feb-20 16:00N 68°14' E 014°56'5 9.6
2018-Feb-20 15:30N 68°19' E 014°59'5 9.1
2018-Feb-20 15:00N 68°23' E 015°05'4 7.4
2018-Feb-20 14:29N 68°26' E 015°10'4 7.1
2018-Feb-20 13:59N 68°30' E 015°11'4 7.9
2018-Feb-20 13:30N 68°34' E 015°10'5 9.5
2018-Feb-20 13:00N 68°37' E 015°18'510.0
2018-Feb-20 12:30N 68°42' E 015°26'510.4
2018-Feb-20 12:00N 68°47' E 015°25'5 9.8
2018-Feb-20 11:29N 68°52' E 015°25'4 7.3
2018-Feb-20 11:00N 68°54' E 015°18'0 0.7
2018-Feb-20 10:30N 68°54' E 015°17'0 0.0
2018-Feb-20 09:59N 68°54' E 015°17'0 0.0
2018-Feb-20 09:30N 68°54' E 015°17'0 0.0
2018-Feb-20 09:00N 68°54' E 015°17'0 0.0
2018-Feb-20 08:30N 68°54' E 015°17'0 0.0
2018-Feb-20 08:00N 68°54' E 015°17'0 0.0
2018-Feb-20 07:30N 68°54' E 015°17'0 0.0
2018-Feb-20 07:00N 68°54' E 015°17'0 0.0
2018-Feb-20 06:30N 68°54' E 015°17'1 1.8
2018-Feb-20 05:59N 68°54' E 015°20'2 3.4
2018-Feb-20 05:30N 68°53' E 015°24'2 4.2
2018-Feb-20 05:00N 68°52' E 015°27'1 2.8
2018-Feb-20 04:30N 68°52' E 015°31'2 4.7
2018-Feb-20 03:59N 68°54' E 015°34'3 6.2
2018-Feb-20 03:29N 68°57' E 015°36'3 6.0
2018-Feb-20 03:00N 68°59' E 015°43'3 6.0
2018-Feb-20 02:30N 68°59' E 015°51'3 6.1
2018-Feb-20 02:00N 68°58' E 015°60'3 6.3
2018-Feb-20 01:30N 68°57' E 016°08'3 6.4
2018-Feb-20 00:59N 68°56' E 016°16'3 6.1
2018-Feb-20 00:29N 68°54' E 016°23'3 6.2
2018-Feb-20 00:00N 68°52' E 016°30'3 5.6
2018-Feb-19 23:30N 68°53' E 016°38'3 5.9
2018-Feb-19 23:00N 68°55' E 016°44'3 5.9
2018-Feb-19 22:28N 68°56' E 016°52'3 6.4
2018-Feb-19 22:00N 68°57' E 016°60'3 6.2
2018-Feb-19 21:30N 68°59' E 017°07'3 6.0
2018-Feb-19 20:59N 69°00' E 017°15'3 6.2
2018-Feb-19 20:30N 69°03' E 017°19'3 6.2
2018-Feb-19 20:00N 69°05' E 017°24'3 6.1
2018-Feb-19 19:29N 69°07' E 017°32'3 6.2
2018-Feb-19 19:00N 69°08' E 017°40'3 5.7
2018-Feb-19 18:30N 69°09' E 017°48'3 6.2
2018-Feb-19 18:00N 69°10' E 017°56'3 5.4
2018-Feb-19 17:29N 69°12' E 018°01'3 5.8
2018-Feb-19 16:59N 69°15' E 017°58'3 6.0
2018-Feb-19 16:30N 69°17' E 017°58'3 5.1
2018-Feb-19 16:00N 69°20' E 018°02'3 5.0
2018-Feb-19 15:29N 69°22' E 018°06'3 5.3
2018-Feb-19 15:00N 69°24' E 018°07'3 5.4
2018-Feb-19 14:30N 69°27' E 018°07'2 5.0
2018-Feb-19 14:00N 69°29' E 018°12'3 5.7
2018-Feb-19 13:30N 69°30' E 018°19'3 6.6
2018-Feb-19 13:00N 69°32' E 018°28'4 8.6
2018-Feb-19 12:30N 69°33' E 018°39'3 5.5
2018-Feb-19 12:00N 69°34' E 018°47'5 9.2
2018-Feb-19 11:29N 69°37' E 018°55'2 4.9
2018-Feb-19 11:00N 69°40' E 018°59'5 9.3
2018-Feb-19 10:30N 69°44' E 019°04'510.3
2018-Feb-19 10:00N 69°47' E 019°16'510.0
2018-Feb-19 09:30N 69°49' E 019°29'5 9.1
2018-Feb-19 09:00N 69°51' E 019°41'5 9.0
2018-Feb-19 08:29N 69°53' E 019°52'4 9.0
2018-Feb-19 08:00N 69°56' E 020°02'5 9.0
2018-Feb-19 07:30N 69°58' E 020°13'5 9.3
2018-Feb-19 06:58N 70°00' E 020°27'4 9.2
2018-Feb-19 06:30N 70°02' E 020°39'5 9.3
2018-Feb-19 05:59N 70°03' E 020°52'4 8.8
2018-Feb-19 05:29N 70°07' E 020°60'5 8.9
2018-Feb-19 04:59N 70°11' E 021°05'4 8.7
2018-Feb-19 04:30N 70°14' E 021°11'5 9.0
2018-Feb-19 03:59N 70°17' E 021°22'4 8.8
2018-Feb-19 03:30N 70°20' E 021°31'4 8.8
2018-Feb-19 03:00N 70°24' E 021°38'5 8.7
2018-Feb-19 02:29N 70°25' E 021°51'4 9.0
2018-Feb-19 02:00N 70°26' E 022°04'4 9.2
2018-Feb-19 01:30N 70°27' E 022°17'5 9.4
2018-Feb-19 01:00N 70°28' E 022°31'4 8.8
2018-Feb-19 00:30N 70°30' E 022°43'4 8.8
2018-Feb-19 00:00N 70°31' E 022°56'5 8.9
2018-Feb-18 23:29N 70°34' E 023°06'4 9.2
2018-Feb-18 23:00N 70°37' E 023°15'5 9.6
2018-Feb-18 22:30N 70°41' E 023°25'5 9.4
2018-Feb-18 21:59N 70°44' E 023°35'4 9.2
2018-Feb-18 21:30N 70°48' E 023°44'5 9.2
2018-Feb-18 21:00N 70°51' E 023°55'5 9.4
2018-Feb-18 20:30N 70°54' E 024°05'510.2
2018-Feb-18 20:00N 70°57' E 024°17'5 9.7
2018-Feb-18 19:30N 71°00' E 024°28'4 7.3
2018-Feb-18 18:59N 71°01' E 024°39'4 8.6
2018-Feb-18 18:30N 70°60' E 024°51'5 9.5
2018-Feb-18 18:00N 70°59' E 025°06'5 9.4
2018-Feb-18 17:30N 70°59' E 025°20'5 9.0
2018-Feb-18 17:00N 70°56' E 025°31'4 7.9
2018-Feb-18 16:29N 70°56' E 025°43'4 8.4
2018-Feb-18 16:00N 70°56' E 025°56'2 4.6
2018-Feb-18 15:29N 70°57' E 026°02'510.4
2018-Feb-18 15:00N 70°59' E 026°17'510.1
2018-Feb-18 14:30N 71°01' E 026°31'5 9.5
2018-Feb-18 14:00N 71°02' E 026°45'4 8.4
2018-Feb-18 13:30N 71°04' E 026°57'4 8.1
2018-Feb-18 12:58N 71°06' E 027°09'4 8.8
2018-Feb-18 12:29N 71°07' E 027°22'5 9.6
2018-Feb-18 11:58N 71°09' E 027°36'5 9.5
2018-Feb-18 11:29N 71°08' E 027°50'5 9.7
2018-Feb-18 11:00N 71°08' E 028°05'5 9.9
2018-Feb-18 10:30N 71°07' E 028°19'5 9.7
2018-Feb-18 10:00N 71°04' E 028°32'5 9.8
2018-Feb-18 09:30N 71°01' E 028°45'5 9.4
2018-Feb-18 08:59N 70°59' E 028°57'5 9.7
2018-Feb-18 08:30N 70°56' E 029°09'5 9.5
2018-Feb-18 08:00N 70°53' E 029°21'5 9.1
2018-Feb-18 07:30N 70°51' E 029°33'4 9.0
2018-Feb-18 07:00N 70°49' E 029°44'4 8.8
2018-Feb-18 06:30N 70°46' E 029°55'5 8.8
2018-Feb-18 05:59N 70°43' E 030°06'4 8.4
2018-Feb-18 05:30N 70°41' E 030°15'4 8.0
2018-Feb-18 05:00N 70°37' E 030°22'1 0.4
2018-Feb-18 01:51N 70°36' E 030°22'3 9.2
2018-Feb-18 01:30N 70°39' E 030°20'5 9.4
2018-Feb-18 01:00N 70°43' E 030°11'5 9.4
2018-Feb-18 00:30N 70°45' E 029°59'5 9.4
2018-Feb-17 23:58N 70°48' E 029°46'4 9.1
2018-Feb-17 23:29N 70°50' E 029°35'4 8.9
2018-Feb-17 23:00N 70°53' E 029°25'5 8.7
2018-Feb-17 22:29N 70°56' E 029°13'4 8.1
2018-Feb-17 22:00N 70°57' E 029°02'4 8.5
2018-Feb-17 21:30N 70°60' E 028°52'4 8.7
2018-Feb-17 21:00N 71°02' E 028°41'4 8.3
2018-Feb-17 20:29N 71°04' E 028°29'4 8.8
2018-Feb-17 20:00N 71°07' E 028°18'4 8.2
2018-Feb-17 19:30N 71°08' E 028°06'4 8.7
2018-Feb-17 19:00N 71°08' E 027°53'5 8.8
2018-Feb-17 18:30N 71°08' E 027°39'4 8.6
2018-Feb-17 18:00N 71°07' E 027°26'5 9.1
2018-Feb-17 17:30N 71°04' E 027°15'4 9.2
2018-Feb-17 17:00N 71°01' E 027°06'5 9.2
2018-Feb-17 16:30N 70°56' E 027°02'5 9.2
2018-Feb-17 16:00N 70°52' E 027°08'5 9.2
2018-Feb-17 15:29N 70°48' E 027°14'1 1.5
2018-Feb-17 14:31N 70°46' E 027°13'010.7
2018-Feb-17 14:30N 70°46' E 027°13'5 9.0
2018-Feb-17 13:59N 70°49' E 027°02'5 9.5
2018-Feb-17 13:29N 70°53' E 026°55'5 9.5
2018-Feb-17 13:00N 70°57' E 026°47'4 8.5
2018-Feb-17 12:29N 70°59' E 026°35'4 9.1
2018-Feb-17 12:00N 70°58' E 026°22'5 9.1
2018-Feb-17 11:30N 70°57' E 026°08'4 7.6
2018-Feb-17 11:00N 70°57' E 025°57'2 4.4
2018-Feb-17 10:30N 70°56' E 025°50'5 9.4
2018-Feb-17 09:58N 70°56' E 025°35'4 7.5
2018-Feb-17 09:30N 70°58' E 025°27'5 9.2
2018-Feb-17 09:00N 70°59' E 025°13'5 9.2
2018-Feb-17 08:30N 70°59' E 024°59'4 8.7
2018-Feb-17 07:59N 71°00' E 024°46'4 8.6
2018-Feb-17 07:30N 71°02' E 024°34'4 8.4
2018-Feb-17 07:00N 70°58' E 024°31'5 9.3
2018-Feb-17 06:29N 70°53' E 024°32'4 8.0
2018-Feb-17 06:00N 70°49' E 024°35'0 0.8
2018-Feb-17 05:30N 70°49' E 024°36'1 2.1
2018-Feb-17 05:00N 70°48' E 024°36'2 4.5
2018-Feb-17 04:30N 70°50' E 024°32'2 3.3
2018-Feb-17 04:00N 70°50' E 024°27'0 0.3
2018-Feb-17 03:30N 70°50' E 024°27'3 7.0
2018-Feb-17 03:00N 70°53' E 024°25'4 7.9
2018-Feb-17 02:28N 70°54' E 024°13'510.0
2018-Feb-17 02:00N 70°51' E 024°01'510.0
2018-Feb-17 01:28N 70°48' E 023°48'510.4
2018-Feb-17 00:59N 70°45' E 023°37'5 9.9
2018-Feb-17 00:30N 70°40' E 023°31'4 7.2
2018-Feb-16 23:59N 70°38' E 023°40'0 0.1
2018-Feb-16 23:29N 70°38' E 023°40'0 0.0
2018-Feb-16 23:00N 70°38' E 023°40'0 0.0
2018-Feb-16 22:30N 70°38' E 023°40'0 0.0
2018-Feb-16 22:00N 70°38' E 023°40'0 0.0
2018-Feb-16 21:30N 70°38' E 023°40'0 0.0
2018-Feb-16 21:00N 70°38' E 023°40'0 0.0
2018-Feb-16 20:30N 70°38' E 023°40'0 0.0
2018-Feb-16 20:00N 70°38' E 023°40'0 0.0
2018-Feb-16 19:30N 70°38' E 023°40'0 0.0
2018-Feb-16 19:00N 70°38' E 023°40'0 0.0
2018-Feb-16 18:30N 70°38' E 023°40'0 0.0
2018-Feb-16 18:00N 70°38' E 023°40'0 0.0
2018-Feb-16 17:30N 70°38' E 023°40'3 5.2
2018-Feb-16 17:00N 70°38' E 023°32'510.1
2018-Feb-16 16:30N 70°38' E 023°17'3 7.0
2018-Feb-16 16:00N 70°38' E 023°06'2 4.9
2018-Feb-16 15:30N 70°38' E 023°14'5 9.5
2018-Feb-16 15:00N 70°38' E 023°28'4 8.1
2018-Feb-16 14:30N 70°35' E 023°37'510.1
2018-Feb-16 14:00N 70°31' E 023°43'5 8.7
2018-Feb-16 13:27N 70°31' E 023°58'4 8.7
2018-Feb-16 13:00N 70°34' E 024°04'0 0.4
2018-Feb-16 12:29N 70°34' E 024°04'2 3.2
2018-Feb-16 12:00N 70°33' E 024°03'510.5
2018-Feb-16 11:30N 70°30' E 023°50'4 8.5
2018-Feb-16 11:00N 70°29' E 023°38'0 0.1
2018-Feb-16 10:30N 70°29' E 023°38'3 5.4
2018-Feb-16 10:00N 70°26' E 023°39'5 9.6
2018-Feb-16 09:30N 70°22' E 023°31'5 9.6
2018-Feb-16 09:00N 70°18' E 023°22'5 9.4
2018-Feb-16 08:28N 70°16' E 023°10'5 9.5
2018-Feb-16 07:59N 70°14' E 022°57'5 9.5
2018-Feb-16 07:30N 70°14' E 022°43'5 9.4
2018-Feb-16 07:00N 70°15' E 022°30'4 7.6
2018-Feb-16 06:30N 70°15' E 022°19'5 9.7
2018-Feb-16 06:00N 70°10' E 022°17'1 2.3
2018-Feb-16 05:29N 70°09' E 022°19'0 0.1
2018-Feb-16 05:00N 70°09' E 022°19'2 3.7
2018-Feb-16 04:30N 70°11' E 022°17'4 8.8
2018-Feb-16 04:00N 70°15' E 022°19'4 7.9
2018-Feb-16 03:30N 70°19' E 022°13'5 9.5
2018-Feb-16 03:00N 70°21' E 021°60'4 8.7
2018-Feb-16 02:30N 70°18' E 021°50'4 8.7
2018-Feb-16 02:00N 70°14' E 021°45'1 2.8
2018-Feb-16 01:29N 70°13' E 021°49'1 1.4
2018-Feb-16 00:54N 70°14' E 021°47'3 7.4
2018-Feb-16 00:29N 70°16' E 021°41'5 9.3
2018-Feb-16 00:00N 70°20' E 021°37'4 7.7
2018-Feb-15 23:30N 70°19' E 021°27'5 9.6
2018-Feb-15 22:59N 70°15' E 021°15'4 9.0
2018-Feb-15 22:29N 70°12' E 021°07'5 9.3
2018-Feb-15 22:00N 70°08' E 021°01'5 9.3
2018-Feb-15 21:29N 70°04' E 020°54'5 9.4
2018-Feb-15 21:00N 70°02' E 020°41'5 9.5
2018-Feb-15 20:29N 70°00' E 020°28'4 9.2
2018-Feb-15 20:00N 69°59' E 020°15'5 9.4
2018-Feb-15 19:30N 69°56' E 020°04'5 9.5
2018-Feb-15 19:00N 69°53' E 019°53'5 9.3
2018-Feb-15 18:30N 69°51' E 019°42'5 9.5
2018-Feb-15 18:00N 69°49' E 019°29'5 9.6
2018-Feb-15 17:29N 69°47' E 019°16'5 9.6
2018-Feb-15 17:00N 69°44' E 019°05'4 8.1
2018-Feb-15 16:30N 69°41' E 018°59'3 5.5
2018-Feb-15 16:00N 69°38' E 018°57'5 9.6
2018-Feb-15 15:29N 69°34' E 018°48'4 7.8
2018-Feb-15 15:00N 69°33' E 018°38'510.0
2018-Feb-15 14:30N 69°31' E 018°25'510.3
2018-Feb-15 14:00N 69°29' E 018°12'5 9.5
2018-Feb-15 13:30N 69°24' E 018°07'510.0
2018-Feb-15 13:00N 69°20' E 018°02'5 9.8
2018-Feb-15 12:30N 69°15' E 017°58'4 8.7
2018-Feb-15 12:00N 69°11' E 017°59'510.2
2018-Feb-15 11:29N 69°08' E 017°46'5 9.8
2018-Feb-15 11:00N 69°07' E 017°34'5 9.8
2018-Feb-15 10:30N 69°04' E 017°22'5 9.9
2018-Feb-15 10:00N 68°60' E 017°15'510.2
2018-Feb-15 09:30N 68°56' E 017°04'5 9.9
2018-Feb-15 09:00N 68°53' E 016°53'5 9.7
2018-Feb-15 08:30N 68°50' E 016°43'4 7.9
2018-Feb-15 08:00N 68°48' E 016°34'0 0.0
2018-Feb-15 07:30N 68°48' E 016°34'0 0.0
2018-Feb-15 07:00N 68°48' E 016°34'1 2.4
2018-Feb-15 06:30N 68°48' E 016°37'2 3.6
2018-Feb-15 06:00N 68°46' E 016°41'1 2.6
2018-Feb-15 05:29N 68°45' E 016°43'1 3.0
2018-Feb-15 04:59N 68°44' E 016°42'1 2.9
2018-Feb-15 04:30N 68°43' E 016°41'1 2.9
2018-Feb-15 03:59N 68°41' E 016°40'2 3.5
2018-Feb-15 03:30N 68°40' E 016°38'3 5.6
2018-Feb-15 03:00N 68°37' E 016°34'4 7.1
2018-Feb-15 02:30N 68°34' E 016°31'3 6.3
2018-Feb-15 02:00N 68°34' E 016°22'3 6.7
2018-Feb-15 01:30N 68°33' E 016°13'3 6.8
2018-Feb-15 00:59N 68°30' E 016°08'3 6.9
2018-Feb-15 00:30N 68°27' E 016°05'3 6.4
2018-Feb-15 00:00N 68°24' E 016°01'3 6.5
2018-Feb-14 23:30N 68°21' E 015°57'3 6.2
2018-Feb-14 23:00N 68°18' E 015°52'3 6.3
2018-Feb-14 22:30N 68°16' E 015°46'3 6.8
2018-Feb-14 22:00N 68°14' E 015°39'4 7.0
2018-Feb-14 21:29N 68°12' E 015°31'3 6.8
2018-Feb-14 21:00N 68°10' E 015°24'3 6.7
2018-Feb-14 20:30N 68°07' E 015°18'3 6.8
2018-Feb-14 20:00N 68°05' E 015°11'3 7.0
2018-Feb-14 19:30N 68°03' E 015°05'4 6.9
2018-Feb-14 19:00N 68°00' E 014°58'3 6.4
2018-Feb-14 18:30N 67°58' E 014°52'3 6.0
2018-Feb-14 18:00N 67°56' E 014°46'3 6.2
2018-Feb-14 17:30N 67°53' E 014°44'3 6.0
2018-Feb-14 17:00N 67°51' E 014°39'3 6.3
2018-Feb-14 16:30N 67°49' E 014°33'3 6.3
2018-Feb-14 15:59N 67°45' E 014°32'4 7.8
2018-Feb-14 15:30N 67°42' E 014°31'4 7.9
2018-Feb-14 15:00N 67°38' E 014°31'4 7.9
2018-Feb-14 14:30N 67°34' E 014°30'4 8.2
2018-Feb-14 14:00N 67°30' E 014°29'4 8.2
2018-Feb-14 13:30N 67°26' E 014°27'4 8.1
2018-Feb-14 13:00N 67°22' E 014°24'4 7.7
2018-Feb-14 12:30N 67°18' E 014°23'1 1.5
2018-Feb-14 12:00N 67°17' E 014°23'0 0.0
2018-Feb-14 11:30N 67°17' E 014°23'0 0.0
2018-Feb-14 11:00N 67°17' E 014°23'0 0.0
2018-Feb-14 10:30N 67°17' E 014°23'0 0.0
2018-Feb-14 10:00N 67°17' E 014°23'0 0.0
2018-Feb-14 09:30N 67°17' E 014°23'0 0.0
2018-Feb-14 09:00N 67°17' E 014°23'0 0.0
2018-Feb-14 08:30N 67°17' E 014°23'0 0.0
2018-Feb-14 08:00N 67°17' E 014°23'0 0.0
2018-Feb-14 07:30N 67°17' E 014°23'0 0.0
2018-Feb-14 07:00N 67°17' E 014°23'0 0.0
2018-Feb-14 06:30N 67°17' E 014°23'0 0.0
2018-Feb-14 06:00N 67°17' E 014°23'0 0.0
2018-Feb-14 05:30N 67°17' E 014°23'0 0.0
2018-Feb-14 05:00N 67°17' E 014°23'0 0.0
2018-Feb-14 04:30N 67°17' E 014°23'0 0.0
2018-Feb-14 04:00N 67°17' E 014°23'0 0.0
2018-Feb-14 03:30N 67°17' E 014°23'0 0.0
2018-Feb-14 03:00N 67°17' E 014°23'0 0.0
2018-Feb-14 02:30N 67°17' E 014°23'0 0.0
2018-Feb-14 02:00N 67°17' E 014°23'0 0.0
2018-Feb-14 01:30N 67°17' E 014°23'0 0.0
2018-Feb-14 01:00N 67°17' E 014°23'0 0.0
2018-Feb-14 00:30N 67°17' E 014°23'0 0.0
2018-Feb-14 00:00N 67°17' E 014°23'3 6.9
2018-Feb-13 23:30N 67°15' E 014°16'5 9.8
2018-Feb-13 23:00N 67°12' E 014°07'510.2
2018-Feb-13 22:30N 67°07' E 014°00'510.1
2018-Feb-13 21:59N 67°03' E 013°51'510.1
2018-Feb-13 21:30N 67°00' E 013°41'5 9.8
2018-Feb-13 21:00N 66°58' E 013°30'5 9.0
2018-Feb-13 20:29N 66°54' E 013°25'5 9.8
2018-Feb-13 20:00N 66°50' E 013°17'510.1
2018-Feb-13 19:30N 66°45' E 013°13'510.0
2018-Feb-13 19:00N 66°41' E 013°08'510.3
2018-Feb-13 18:30N 66°36' E 013°04'4 8.8
2018-Feb-13 18:00N 66°32' E 012°58'510.0
2018-Feb-13 17:30N 66°27' E 012°59'510.1
2018-Feb-13 17:00N 66°22' E 012°58'5 9.9
2018-Feb-13 16:29N 66°17' E 012°56'4 9.0
2018-Feb-13 16:00N 66°13' E 012°53'4 8.7
2018-Feb-13 15:30N 66°09' E 012°49'4 8.9
2018-Feb-13 15:00N 66°05' E 012°42'5 9.1
2018-Feb-13 14:30N 66°02' E 012°35'5 9.3
2018-Feb-13 13:59N 65°58' E 012°28'5 9.4
2018-Feb-13 13:30N 65°54' E 012°22'5 9.1
2018-Feb-13 12:59N 65°50' E 012°21'5 9.3
2018-Feb-13 12:28N 65°45' E 012°18'4 9.4
2018-Feb-13 12:00N 65°41' E 012°15'5 9.4
2018-Feb-13 11:29N 65°36' E 012°13'5 9.6
2018-Feb-13 10:59N 65°31' E 012°12'3 5.3
2018-Feb-13 10:29N 65°29' E 012°13'0 0.0
2018-Feb-13 09:59N 65°29' E 012°13'4 8.1
2018-Feb-13 09:30N 65°25' E 012°09'5 9.7
2018-Feb-13 09:00N 65°21' E 012°03'510.0
2018-Feb-13 08:30N 65°16' E 011°57'510.1
2018-Feb-13 08:00N 65°12' E 011°52'510.0
2018-Feb-13 07:30N 65°07' E 011°49'510.0
2018-Feb-13 07:00N 65°03' E 011°43'5 9.6
2018-Feb-13 06:30N 64°59' E 011°36'5 9.9
2018-Feb-13 06:00N 64°56' E 011°26'510.1
2018-Feb-13 05:30N 64°53' E 011°18'5 9.9
2018-Feb-13 05:00N 64°49' E 011°09'5 9.9
2018-Feb-13 04:30N 64°46' E 011°01'5 9.6
2018-Feb-13 04:00N 64°42' E 010°53'5 9.7
2018-Feb-13 03:30N 64°39' E 010°45'5 9.8
2018-Feb-13 03:00N 64°35' E 010°39'5 9.7
2018-Feb-13 02:30N 64°30' E 010°34'5 9.1
2018-Feb-13 02:00N 64°27' E 010°27'5 9.3
2018-Feb-13 01:30N 64°22' E 010°28'4 9.0
2018-Feb-13 01:00N 64°18' E 010°23'4 8.8
2018-Feb-13 00:29N 64°15' E 010°17'4 9.0
2018-Feb-13 00:00N 64°11' E 010°10'5 9.0
2018-Feb-12 23:30N 64°08' E 010°04'4 7.7
2018-Feb-12 22:59N 64°04' E 010°02'4 7.5
2018-Feb-12 22:30N 64°01' E 009°58'5 9.0
2018-Feb-12 22:00N 63°57' E 009°54'3 6.7
2018-Feb-12 21:30N 63°53' E 009°52'0 0.0
2018-Feb-12 21:00N 63°53' E 009°52'0 0.0
2018-Feb-12 20:28N 63°53' E 009°52'0 0.0
2018-Feb-12 19:59N 63°53' E 009°52'0 0.0
2018-Feb-12 19:30N 63°53' E 009°52'0 0.0
2018-Feb-12 18:59N 63°53' E 009°52'0 0.0
2018-Feb-12 18:30N 63°53' E 009°52'0 0.0
2018-Feb-12 18:00N 63°53' E 009°52'0 0.0
2018-Feb-12 17:30N 63°53' E 009°52'0 0.0
2018-Feb-12 17:00N 63°53' E 009°52'0 0.0
2018-Feb-12 16:30N 63°53' E 009°52'0 0.0
2018-Feb-12 16:00N 63°53' E 009°52'0 0.4
2018-Feb-12 15:30N 63°53' E 009°53'3 5.8
2018-Feb-12 15:00N 63°53' E 009°47'4 8.8
2018-Feb-12 14:30N 63°50' E 009°38'5 9.3
2018-Feb-12 14:00N 63°46' E 009°33'4 7.1
2018-Feb-12 13:29N 63°45' E 009°41'2 4.5
2018-Feb-12 12:58N 63°46' E 009°46'0 0.0
2018-Feb-12 12:30N 63°46' E 009°46'0 0.0
2018-Feb-12 12:00N 63°46' E 009°46'0 0.0
2018-Feb-12 11:29N 63°46' E 009°46'0 0.0
2018-Feb-12 11:00N 63°46' E 009°46'0 0.0
2018-Feb-12 10:30N 63°46' E 009°46'0 0.0
2018-Feb-12 09:58N 63°46' E 009°46'0 0.0
2018-Feb-12 09:29N 63°46' E 009°46'0 0.0
2018-Feb-12 09:00N 63°46' E 009°46'0 0.0
2018-Feb-12 08:29N 63°46' E 009°46'0 0.0
2018-Feb-12 07:59N 63°46' E 009°46'0 0.2
2018-Feb-12 07:30N 63°46' E 009°45'0 0.0
2018-Feb-12 07:00N 63°46' E 009°45'0 0.0
2018-Feb-12 06:30N 63°46' E 009°45'0 0.0
2018-Feb-12 06:00N 63°46' E 009°45'0 0.0
2018-Feb-12 05:29N 63°46' E 009°45'0 0.0
2018-Feb-12 04:58N 63°46' E 009°45'0 0.0
2018-Feb-12 04:29N 63°46' E 009°45'0 0.0
2018-Feb-12 04:00N 63°46' E 009°45'0 0.0
2018-Feb-12 03:30N 63°46' E 009°45'0 0.0
2018-Feb-12 03:00N 63°46' E 009°45'0 0.0
2018-Feb-12 02:30N 63°46' E 009°45'0 0.0
2018-Feb-12 02:00N 63°46' E 009°45'0 0.0
2018-Feb-12 01:30N 63°46' E 009°45'0 0.0
2018-Feb-12 01:00N 63°46' E 009°45'0 0.0
2018-Feb-12 00:30N 63°46' E 009°45'0 0.0
2018-Feb-12 00:00N 63°46' E 009°45'0 0.0
2018-Feb-11 23:30N 63°46' E 009°45'0 0.0
2018-Feb-11 23:00N 63°46' E 009°45'0 0.0
2018-Feb-11 22:30N 63°46' E 009°45'0 0.0
2018-Feb-11 21:59N 63°46' E 009°45'0 0.0
2018-Feb-11 21:30N 63°46' E 009°45'0 0.0
2018-Feb-11 21:00N 63°46' E 009°45'0 0.0
2018-Feb-11 20:30N 63°46' E 009°45'0 0.0
2018-Feb-11 20:00N 63°46' E 009°45'0 0.0
2018-Feb-11 19:30N 63°46' E 009°45'0 0.0
2018-Feb-11 18:58N 63°46' E 009°45'0 0.0
2018-Feb-11 18:30N 63°46' E 009°45'0 0.0
2018-Feb-11 17:59N 63°46' E 009°45'0 0.0
2018-Feb-11 17:30N 63°46' E 009°45'0 0.0
2018-Feb-11 17:00N 63°46' E 009°45'0 0.0
2018-Feb-11 16:29N 63°46' E 009°45'0 0.0
2018-Feb-11 15:59N 63°46' E 009°45'0 0.0
2018-Feb-11 15:30N 63°46' E 009°45'0 0.0
2018-Feb-11 15:00N 63°46' E 009°45'0 0.0
2018-Feb-11 14:30N 63°46' E 009°45'0 0.0
2018-Feb-11 14:00N 63°46' E 009°45'2 3.9
2018-Feb-11 13:29N 63°45' E 009°41'4 8.1
2018-Feb-11 13:00N 63°46' E 009°32'5 8.9
2018-Feb-11 12:30N 63°50' E 009°37'4 8.8
2018-Feb-11 12:00N 63°53' E 009°45'4 6.9
2018-Feb-11 11:29N 63°54' E 009°53'0 0.7
2018-Feb-11 10:59N 63°53' E 009°52'0 0.0
2018-Feb-11 10:30N 63°53' E 009°52'0 0.0
2018-Feb-11 09:59N 63°53' E 009°52'0 0.0
2018-Feb-11 09:30N 63°53' E 009°52'0 0.0
2018-Feb-11 09:00N 63°53' E 009°52'0 0.0
2018-Feb-11 08:29N 63°53' E 009°52'0 0.0
2018-Feb-11 08:00N 63°53' E 009°52'0 0.0
2018-Feb-11 07:30N 63°53' E 009°52'0 0.0
2018-Feb-11 06:59N 63°53' E 009°52'0 0.0
2018-Feb-11 06:30N 63°53' E 009°52'0 0.0
2018-Feb-11 06:00N 63°53' E 009°52'0 0.0
2018-Feb-11 05:29N 63°53' E 009°52'0 0.1
2018-Feb-11 04:59N 63°53' E 009°52'3 6.1
2018-Feb-11 04:30N 63°56' E 009°54'4 8.4
2018-Feb-11 04:00N 64°00' E 009°57'4 8.0
2018-Feb-11 03:30N 64°03' E 010°03'3 7.1
2018-Feb-11 03:00N 64°07' E 010°02'4 8.5
2018-Feb-11 02:30N 64°10' E 010°08'  
Track history (hours):
 
Tides and Currents Weather Stations Pressure Air Temp Water Temp Dewpoint Dewpoint Depression Visibility Wind Speed Wind Dir Waves Ship Positions

Biotrans

Last reported at 2018-Feb-21 02:00 UTC. Time now 2018-Feb-21 02:04 UTC.
Position N 67°01' E 013°42'.

Length 55 m; draft 5.5 m.

Type: Cargo ship. MMSI: 259260000.

Date/timePositionNaut miles runAvg speedWind from/ knotsBaromVisibWave heightAir tempDewpointWater temp
2018-Feb-21 02:00N 67°01' E 013°42'5 9.1
2018-Feb-21 01:30N 67°03' E 013°52'2 3.7
2018-Feb-21 01:00N 67°05' E 013°51'0 0.0
2018-Feb-21 00:30N 67°05' E 013°51'0 0.4
2018-Feb-21 00:00N 67°05' E 013°52'4 8.4
2018-Feb-20 23:30N 67°07' E 014°00'5 9.4
2018-Feb-20 23:00N 67°12' E 014°05'5 9.6
2018-Feb-20 22:30N 67°16' E 014°12'5 9.8
2018-Feb-20 22:00N 67°20' E 014°19'5 9.4
2018-Feb-20 21:30N 67°24' E 014°26'5 9.5
2018-Feb-20 21:00N 67°28' E 014°28'5 9.6
2018-Feb-20 20:30N 67°33' E 014°30'5 9.8
2018-Feb-20 20:00N 67°38' E 014°30'5 9.6
2018-Feb-20 19:30N 67°43' E 014°31'5 9.4
2018-Feb-20 19:00N 67°47' E 014°30'5 9.8
2018-Feb-20 18:30N 67°51' E 014°40'5 9.3
2018-Feb-20 18:00N 67°55' E 014°45'5 9.7
2018-Feb-20 17:30N 67°60' E 014°47'5 9.9
2018-Feb-20 17:00N 68°05' E 014°49'510.2
2018-Feb-20 16:30N 68°10' E 014°52'510.1
2018-Feb-20 16:00N 68°14' E 014°56'5 9.6
2018-Feb-20 15:30N 68°19' E 014°59'5 9.1
2018-Feb-20 15:00N 68°23' E 015°05'4 7.4
2018-Feb-20 14:29N 68°26' E 015°10'4 7.1
2018-Feb-20 13:59N 68°30' E 015°11'4 7.9
2018-Feb-20 13:30N 68°34' E 015°10'5 9.5
2018-Feb-20 13:00N 68°37' E 015°18'510.0
2018-Feb-20 12:30N 68°42' E 015°26'510.4
2018-Feb-20 12:00N 68°47' E 015°25'5 9.8
2018-Feb-20 11:29N 68°52' E 015°25'4 7.3
2018-Feb-20 11:00N 68°54' E 015°18'0 0.7
2018-Feb-20 10:30N 68°54' E 015°17'0 0.0
2018-Feb-20 09:59N 68°54' E 015°17'0 0.0
2018-Feb-20 09:30N 68°54' E 015°17'0 0.0
2018-Feb-20 09:00N 68°54' E 015°17'0 0.0
2018-Feb-20 08:30N 68°54' E 015°17'0 0.0
2018-Feb-20 08:00N 68°54' E 015°17'0 0.0
2018-Feb-20 07:30N 68°54' E 015°17'0 0.0
2018-Feb-20 07:00N 68°54' E 015°17'0 0.0
2018-Feb-20 06:30N 68°54' E 015°17'1 1.8
2018-Feb-20 05:59N 68°54' E 015°20'2 3.4
2018-Feb-20 05:30N 68°53' E 015°24'2 4.2
2018-Feb-20 05:00N 68°52' E 015°27'1 2.8
2018-Feb-20 04:30N 68°52' E 015°31'2 4.7
2018-Feb-20 03:59N 68°54' E 015°34'3 6.2
2018-Feb-20 03:29N 68°57' E 015°36'3 6.0
2018-Feb-20 03:00N 68°59' E 015°43'3 6.0
2018-Feb-20 02:30N 68°59' E 015°51'3 6.1
2018-Feb-20 02:00N 68°58' E 015°60'3 6.3
2018-Feb-20 01:30N 68°57' E 016°08'3 6.4
2018-Feb-20 00:59N 68°56' E 016°16'3 6.1
2018-Feb-20 00:29N 68°54' E 016°23'3 6.2
2018-Feb-20 00:00N 68°52' E 016°30'3 5.6
2018-Feb-19 23:30N 68°53' E 016°38'3 5.9
2018-Feb-19 23:00N 68°55' E 016°44'3 5.9
2018-Feb-19 22:28N 68°56' E 016°52'3 6.4
2018-Feb-19 22:00N 68°57' E 016°60'3 6.2
2018-Feb-19 21:30N 68°59' E 017°07'3 6.0
2018-Feb-19 20:59N 69°00' E 017°15'3 6.2
2018-Feb-19 20:30N 69°03' E 017°19'3 6.2
2018-Feb-19 20:00N 69°05' E 017°24'3 6.1
2018-Feb-19 19:29N 69°07' E 017°32'3 6.2
2018-Feb-19 19:00N 69°08' E 017°40'3 5.7
2018-Feb-19 18:30N 69°09' E 017°48'3 6.2
2018-Feb-19 18:00N 69°10' E 017°56'3 5.4
2018-Feb-19 17:29N 69°12' E 018°01'3 5.8
2018-Feb-19 16:59N 69°15' E 017°58'3 6.0
2018-Feb-19 16:30N 69°17' E 017°58'3 5.1
2018-Feb-19 16:00N 69°20' E 018°02'3 5.0
2018-Feb-19 15:29N 69°22' E 018°06'3 5.3
2018-Feb-19 15:00N 69°24' E 018°07'3 5.4
2018-Feb-19 14:30N 69°27' E 018°07'2 5.0
2018-Feb-19 14:00N 69°29' E 018°12'3 5.7
2018-Feb-19 13:30N 69°30' E 018°19'3 6.6
2018-Feb-19 13:00N 69°32' E 018°28'4 8.6
2018-Feb-19 12:30N 69°33' E 018°39'3 5.5
2018-Feb-19 12:00N 69°34' E 018°47'5 9.2
2018-Feb-19 11:29N 69°37' E 018°55'2 4.9
2018-Feb-19 11:00N 69°40' E 018°59'5 9.3
2018-Feb-19 10:30N 69°44' E 019°04'510.3
2018-Feb-19 10:00N 69°47' E 019°16'510.0
2018-Feb-19 09:30N 69°49' E 019°29'5 9.1
2018-Feb-19 09:00N 69°51' E 019°41'5 9.0
2018-Feb-19 08:29N 69°53' E 019°52'4 9.0
2018-Feb-19 08:00N 69°56' E 020°02'5 9.0
2018-Feb-19 07:30N 69°58' E 020°13'5 9.3
2018-Feb-19 06:58N 70°00' E 020°27'4 9.2
2018-Feb-19 06:30N 70°02' E 020°39'5 9.3
2018-Feb-19 05:59N 70°03' E 020°52'4 8.8
2018-Feb-19 05:29N 70°07' E 020°60'5 8.9
2018-Feb-19 04:59N 70°11' E 021°05'4 8.7
2018-Feb-19 04:30N 70°14' E 021°11'5 9.0
2018-Feb-19 03:59N 70°17' E 021°22'4 8.8
2018-Feb-19 03:30N 70°20' E 021°31'4 8.8
2018-Feb-19 03:00N 70°24' E 021°38'5 8.7
2018-Feb-19 02:29N 70°25' E 021°51'4 9.0
2018-Feb-19 02:00N 70°26' E 022°04'4 9.2
2018-Feb-19 01:30N 70°27' E 022°17'5 9.4
2018-Feb-19 01:00N 70°28' E 022°31'4 8.8
2018-Feb-19 00:30N 70°30' E 022°43'4 8.8
2018-Feb-19 00:00N 70°31' E 022°56'5 8.9
2018-Feb-18 23:29N 70°34' E 023°06'4 9.2
2018-Feb-18 23:00N 70°37' E 023°15'5 9.6
2018-Feb-18 22:30N 70°41' E 023°25'5 9.4
2018-Feb-18 21:59N 70°44' E 023°35'4 9.2
2018-Feb-18 21:30N 70°48' E 023°44'5 9.2
2018-Feb-18 21:00N 70°51' E 023°55'5 9.4
2018-Feb-18 20:30N 70°54' E 024°05'510.2
2018-Feb-18 20:00N 70°57' E 024°17'5 9.7
2018-Feb-18 19:30N 71°00' E 024°28'4 7.3
2018-Feb-18 18:59N 71°01' E 024°39'4 8.6
2018-Feb-18 18:30N 70°60' E 024°51'5 9.5
2018-Feb-18 18:00N 70°59' E 025°06'5 9.4
2018-Feb-18 17:30N 70°59' E 025°20'5 9.0
2018-Feb-18 17:00N 70°56' E 025°31'4 7.9
2018-Feb-18 16:29N 70°56' E 025°43'4 8.4
2018-Feb-18 16:00N 70°56' E 025°56'2 4.6
2018-Feb-18 15:29N 70°57' E 026°02'510.4
2018-Feb-18 15:00N 70°59' E 026°17'510.1
2018-Feb-18 14:30N 71°01' E 026°31'5 9.5
2018-Feb-18 14:00N 71°02' E 026°45'4 8.4
2018-Feb-18 13:30N 71°04' E 026°57'4 8.1
2018-Feb-18 12:58N 71°06' E 027°09'4 8.8
2018-Feb-18 12:29N 71°07' E 027°22'5 9.6
2018-Feb-18 11:58N 71°09' E 027°36'5 9.5
2018-Feb-18 11:29N 71°08' E 027°50'5 9.7
2018-Feb-18 11:00N 71°08' E 028°05'5 9.9
2018-Feb-18 10:30N 71°07' E 028°19'5 9.7
2018-Feb-18 10:00N 71°04' E 028°32'5 9.8
2018-Feb-18 09:30N 71°01' E 028°45'5 9.4
2018-Feb-18 08:59N 70°59' E 028°57'5 9.7
2018-Feb-18 08:30N 70°56' E 029°09'5 9.5
2018-Feb-18 08:00N 70°53' E 029°21'5 9.1
2018-Feb-18 07:30N 70°51' E 029°33'4 9.0
2018-Feb-18 07:00N 70°49' E 029°44'4 8.8
2018-Feb-18 06:30N 70°46' E 029°55'5 8.8
2018-Feb-18 05:59N 70°43' E 030°06'4 8.4
2018-Feb-18 05:30N 70°41' E 030°15'4 8.0
2018-Feb-18 05:00N 70°37' E 030°22'1 0.4
2018-Feb-18 01:51N 70°36' E 030°22'3 9.2
2018-Feb-18 01:30N 70°39' E 030°20'5 9.4
2018-Feb-18 01:00N 70°43' E 030°11'5 9.4
2018-Feb-18 00:30N 70°45' E 029°59'5 9.4
2018-Feb-17 23:58N 70°48' E 029°46'4 9.1
2018-Feb-17 23:29N 70°50' E 029°35'4 8.9
2018-Feb-17 23:00N 70°53' E 029°25'5 8.7
2018-Feb-17 22:29N 70°56' E 029°13'4 8.1
2018-Feb-17 22:00N 70°57' E 029°02'4 8.5
2018-Feb-17 21:30N 70°60' E 028°52'4 8.7
2018-Feb-17 21:00N 71°02' E 028°41'4 8.3
2018-Feb-17 20:29N 71°04' E 028°29'4 8.8
2018-Feb-17 20:00N 71°07' E 028°18'4 8.2
2018-Feb-17 19:30N 71°08' E 028°06'4 8.7
2018-Feb-17 19:00N 71°08' E 027°53'5 8.8
2018-Feb-17 18:30N 71°08' E 027°39'4 8.6
2018-Feb-17 18:00N 71°07' E 027°26'5 9.1
2018-Feb-17 17:30N 71°04' E 027°15'4 9.2
2018-Feb-17 17:00N 71°01' E 027°06'5 9.2
2018-Feb-17 16:30N 70°56' E 027°02'5 9.2
2018-Feb-17 16:00N 70°52' E 027°08'5 9.2
2018-Feb-17 15:29N 70°48' E 027°14'1 1.5
2018-Feb-17 14:31N 70°46' E 027°13'010.7
2018-Feb-17 14:30N 70°46' E 027°13'5 9.0
2018-Feb-17 13:59N 70°49' E 027°02'5 9.5
2018-Feb-17 13:29N 70°53' E 026°55'5 9.5
2018-Feb-17 13:00N 70°57' E 026°47'4 8.5
2018-Feb-17 12:29N 70°59' E 026°35'4 9.1
2018-Feb-17 12:00N 70°58' E 026°22'5 9.1
2018-Feb-17 11:30N 70°57' E 026°08'4 7.6
2018-Feb-17 11:00N 70°57' E 025°57'2 4.4
2018-Feb-17 10:30N 70°56' E 025°50'5 9.4
2018-Feb-17 09:58N 70°56' E 025°35'4 7.5
2018-Feb-17 09:30N 70°58' E 025°27'5 9.2
2018-Feb-17 09:00N 70°59' E 025°13'5 9.2
2018-Feb-17 08:30N 70°59' E 024°59'4 8.7
2018-Feb-17 07:59N 71°00' E 024°46'4 8.6
2018-Feb-17 07:30N 71°02' E 024°34'4 8.4
2018-Feb-17 07:00N 70°58' E 024°31'5 9.3
2018-Feb-17 06:29N 70°53' E 024°32'4 8.0
2018-Feb-17 06:00N 70°49' E 024°35'0 0.8
2018-Feb-17 05:30N 70°49' E 024°36'1 2.1
2018-Feb-17 05:00N 70°48' E 024°36'2 4.5
2018-Feb-17 04:30N 70°50' E 024°32'2 3.3
2018-Feb-17 04:00N 70°50' E 024°27'0 0.3
2018-Feb-17 03:30N 70°50' E 024°27'3 7.0
2018-Feb-17 03:00N 70°53' E 024°25'4 7.9
2018-Feb-17 02:28N 70°54' E 024°13'510.0
2018-Feb-17 02:00N 70°51' E 024°01'510.0
2018-Feb-17 01:28N 70°48' E 023°48'510.4
2018-Feb-17 00:59N 70°45' E 023°37'5 9.9
2018-Feb-17 00:30N 70°40' E 023°31'4 7.2
2018-Feb-16 23:59N 70°38' E 023°40'0 0.1
2018-Feb-16 23:29N 70°38' E 023°40'0 0.0
2018-Feb-16 23:00N 70°38' E 023°40'0 0.0
2018-Feb-16 22:30N 70°38' E 023°40'0 0.0
2018-Feb-16 22:00N 70°38' E 023°40'0 0.0
2018-Feb-16 21:30N 70°38' E 023°40'0 0.0
2018-Feb-16 21:00N 70°38' E 023°40'0 0.0
2018-Feb-16 20:30N 70°38' E 023°40'0 0.0
2018-Feb-16 20:00N 70°38' E 023°40'0 0.0
2018-Feb-16 19:30N 70°38' E 023°40'0 0.0
2018-Feb-16 19:00N 70°38' E 023°40'0 0.0
2018-Feb-16 18:30N 70°38' E 023°40'0 0.0
2018-Feb-16 18:00N 70°38' E 023°40'0 0.0
2018-Feb-16 17:30N 70°38' E 023°40'3 5.2
2018-Feb-16 17:00N 70°38' E 023°32'510.1
2018-Feb-16 16:30N 70°38' E 023°17'3 7.0
2018-Feb-16 16:00N 70°38' E 023°06'2 4.9
2018-Feb-16 15:30N 70°38' E 023°14'5 9.5
2018-Feb-16 15:00N 70°38' E 023°28'4 8.1
2018-Feb-16 14:30N 70°35' E 023°37'510.1
2018-Feb-16 14:00N 70°31' E 023°43'5 8.7
2018-Feb-16 13:27N 70°31' E 023°58'4 8.7
2018-Feb-16 13:00N 70°34' E 024°04'0 0.4
2018-Feb-16 12:29N 70°34' E 024°04'2 3.2
2018-Feb-16 12:00N 70°33' E 024°03'510.5
2018-Feb-16 11:30N 70°30' E 023°50'4 8.5
2018-Feb-16 11:00N 70°29' E 023°38'0 0.1
2018-Feb-16 10:30N 70°29' E 023°38'3 5.4
2018-Feb-16 10:00N 70°26' E 023°39'5 9.6
2018-Feb-16 09:30N 70°22' E 023°31'5 9.6
2018-Feb-16 09:00N 70°18' E 023°22'5 9.4
2018-Feb-16 08:28N 70°16' E 023°10'5 9.5
2018-Feb-16 07:59N 70°14' E 022°57'5 9.5
2018-Feb-16 07:30N 70°14' E 022°43'5 9.4
2018-Feb-16 07:00N 70°15' E 022°30'4 7.6
2018-Feb-16 06:30N 70°15' E 022°19'5 9.7
2018-Feb-16 06:00N 70°10' E 022°17'1 2.3
2018-Feb-16 05:29N 70°09' E 022°19'0 0.1
2018-Feb-16 05:00N 70°09' E 022°19'2 3.7
2018-Feb-16 04:30N 70°11' E 022°17'4 8.8
2018-Feb-16 04:00N 70°15' E 022°19'4 7.9
2018-Feb-16 03:30N 70°19' E 022°13'5 9.5
2018-Feb-16 03:00N 70°21' E 021°60'4 8.7
2018-Feb-16 02:30N 70°18' E 021°50'4 8.7
2018-Feb-16 02:00N 70°14' E 021°45'1 2.8
2018-Feb-16 01:29N 70°13' E 021°49'1 1.4
2018-Feb-16 00:54N 70°14' E 021°47'3 7.4
2018-Feb-16 00:29N 70°16' E 021°41'5 9.3
2018-Feb-16 00:00N 70°20' E 021°37'4 7.7
2018-Feb-15 23:30N 70°19' E 021°27'5 9.6
2018-Feb-15 22:59N 70°15' E 021°15'4 9.0
2018-Feb-15 22:29N 70°12' E 021°07'5 9.3
2018-Feb-15 22:00N 70°08' E 021°01'5 9.3
2018-Feb-15 21:29N 70°04' E 020°54'5 9.4
2018-Feb-15 21:00N 70°02' E 020°41'5 9.5
2018-Feb-15 20:29N 70°00' E 020°28'4 9.2
2018-Feb-15 20:00N 69°59' E 020°15'5 9.4
2018-Feb-15 19:30N 69°56' E 020°04'5 9.5
2018-Feb-15 19:00N 69°53' E 019°53'5 9.3
2018-Feb-15 18:30N 69°51' E 019°42'5 9.5
2018-Feb-15 18:00N 69°49' E 019°29'5 9.6
2018-Feb-15 17:29N 69°47' E 019°16'5 9.6
2018-Feb-15 17:00N 69°44' E 019°05'4 8.1
2018-Feb-15 16:30N 69°41' E 018°59'3 5.5
2018-Feb-15 16:00N 69°38' E 018°57'5 9.6
2018-Feb-15 15:29N 69°34' E 018°48'4 7.8
2018-Feb-15 15:00N 69°33' E 018°38'510.0
2018-Feb-15 14:30N 69°31' E 018°25'510.3
2018-Feb-15 14:00N 69°29' E 018°12'5 9.5
2018-Feb-15 13:30N 69°24' E 018°07'510.0
2018-Feb-15 13:00N 69°20' E 018°02'5 9.8
2018-Feb-15 12:30N 69°15' E 017°58'4 8.7
2018-Feb-15 12:00N 69°11' E 017°59'510.2
2018-Feb-15 11:29N 69°08' E 017°46'5 9.8
2018-Feb-15 11:00N 69°07' E 017°34'5 9.8
2018-Feb-15 10:30N 69°04' E 017°22'5 9.9
2018-Feb-15 10:00N 68°60' E 017°15'510.2
2018-Feb-15 09:30N 68°56' E 017°04'5 9.9
2018-Feb-15 09:00N 68°53' E 016°53'5 9.7
2018-Feb-15 08:30N 68°50' E 016°43'4 7.9
2018-Feb-15 08:00N 68°48' E 016°34'0 0.0
2018-Feb-15 07:30N 68°48' E 016°34'0 0.0
2018-Feb-15 07:00N 68°48' E 016°34'1 2.4
2018-Feb-15 06:30N 68°48' E 016°37'2 3.6
2018-Feb-15 06:00N 68°46' E 016°41'1 2.6
2018-Feb-15 05:29N 68°45' E 016°43'1 3.0
2018-Feb-15 04:59N 68°44' E 016°42'1 2.9
2018-Feb-15 04:30N 68°43' E 016°41'1 2.9
2018-Feb-15 03:59N 68°41' E 016°40'2 3.5
2018-Feb-15 03:30N 68°40' E 016°38'3 5.6
2018-Feb-15 03:00N 68°37' E 016°34'4 7.1
2018-Feb-15 02:30N 68°34' E 016°31'3 6.3
2018-Feb-15 02:00N 68°34' E 016°22'3 6.7
2018-Feb-15 01:30N 68°33' E 016°13'3 6.8
2018-Feb-15 00:59N 68°30' E 016°08'3 6.9
2018-Feb-15 00:30N 68°27' E 016°05'3 6.4
2018-Feb-15 00:00N 68°24' E 016°01'3 6.5
2018-Feb-14 23:30N 68°21' E 015°57'3 6.2
2018-Feb-14 23:00N 68°18' E 015°52'3 6.3
2018-Feb-14 22:30N 68°16' E 015°46'3 6.8
2018-Feb-14 22:00N 68°14' E 015°39'4 7.0
2018-Feb-14 21:29N 68°12' E 015°31'3 6.8
2018-Feb-14 21:00N 68°10' E 015°24'3 6.7
2018-Feb-14 20:30N 68°07' E 015°18'3 6.8
2018-Feb-14 20:00N 68°05' E 015°11'3 7.0
2018-Feb-14 19:30N 68°03' E 015°05'4 6.9
2018-Feb-14 19:00N 68°00' E 014°58'3 6.4
2018-Feb-14 18:30N 67°58' E 014°52'3 6.0
2018-Feb-14 18:00N 67°56' E 014°46'3 6.2
2018-Feb-14 17:30N 67°53' E 014°44'3 6.0
2018-Feb-14 17:00N 67°51' E 014°39'3 6.3
2018-Feb-14 16:30N 67°49' E 014°33'3 6.3
2018-Feb-14 15:59N 67°45' E 014°32'4 7.8
2018-Feb-14 15:30N 67°42' E 014°31'4 7.9
2018-Feb-14 15:00N 67°38' E 014°31'4 7.9
2018-Feb-14 14:30N 67°34' E 014°30'4 8.2
2018-Feb-14 14:00N 67°30' E 014°29'4 8.2
2018-Feb-14 13:30N 67°26' E 014°27'4 8.1
2018-Feb-14 13:00N 67°22' E 014°24'4 7.7
2018-Feb-14 12:30N 67°18' E 014°23'1 1.5
2018-Feb-14 12:00N 67°17' E 014°23'0 0.0
2018-Feb-14 11:30N 67°17' E 014°23'0 0.0
2018-Feb-14 11:00N 67°17' E 014°23'0 0.0
2018-Feb-14 10:30N 67°17' E 014°23'0 0.0
2018-Feb-14 10:00N 67°17' E 014°23'0 0.0
2018-Feb-14 09:30N 67°17' E 014°23'0 0.0
2018-Feb-14 09:00N 67°17' E 014°23'0 0.0
2018-Feb-14 08:30N 67°17' E 014°23'0 0.0
2018-Feb-14 08:00N 67°17' E 014°23'0 0.0
2018-Feb-14 07:30N 67°17' E 014°23'0 0.0
2018-Feb-14 07:00N 67°17' E 014°23'0 0.0
2018-Feb-14 06:30N 67°17' E 014°23'0 0.0
2018-Feb-14 06:00N 67°17' E 014°23'0 0.0
2018-Feb-14 05:30N 67°17' E 014°23'0 0.0
2018-Feb-14 05:00N 67°17' E 014°23'0 0.0
2018-Feb-14 04:30N 67°17' E 014°23'0 0.0
2018-Feb-14 04:00N 67°17' E 014°23'0 0.0
2018-Feb-14 03:30N 67°17' E 014°23'0 0.0
2018-Feb-14 03:00N 67°17' E 014°23'0 0.0
2018-Feb-14 02:30N 67°17' E 014°23'0 0.0
2018-Feb-14 02:00N 67°17' E 014°23'0 0.0
2018-Feb-14 01:30N 67°17' E 014°23'0 0.0
2018-Feb-14 01:00N 67°17' E 014°23'0 0.0
2018-Feb-14 00:30N 67°17' E 014°23'0 0.0
2018-Feb-14 00:00N 67°17' E 014°23'3 6.9
2018-Feb-13 23:30N 67°15' E 014°16'5 9.8
2018-Feb-13 23:00N 67°12' E 014°07'510.2
2018-Feb-13 22:30N 67°07' E 014°00'510.1
2018-Feb-13 21:59N 67°03' E 013°51'510.1
2018-Feb-13 21:30N 67°00' E 013°41'5 9.8
2018-Feb-13 21:00N 66°58' E 013°30'5 9.0
2018-Feb-13 20:29N 66°54' E 013°25'5 9.8
2018-Feb-13 20:00N 66°50' E 013°17'510.1
2018-Feb-13 19:30N 66°45' E 013°13'510.0
2018-Feb-13 19:00N 66°41' E 013°08'510.3
2018-Feb-13 18:30N 66°36' E 013°04'4 8.8
2018-Feb-13 18:00N 66°32' E 012°58'510.0
2018-Feb-13 17:30N 66°27' E 012°59'510.1
2018-Feb-13 17:00N 66°22' E 012°58'5 9.9
2018-Feb-13 16:29N 66°17' E 012°56'4 9.0
2018-Feb-13 16:00N 66°13' E 012°53'4 8.7
2018-Feb-13 15:30N 66°09' E 012°49'4 8.9
2018-Feb-13 15:00N 66°05' E 012°42'5 9.1
2018-Feb-13 14:30N 66°02' E 012°35'5 9.3
2018-Feb-13 13:59N 65°58' E 012°28'5 9.4
2018-Feb-13 13:30N 65°54' E 012°22'5 9.1
2018-Feb-13 12:59N 65°50' E 012°21'5 9.3
2018-Feb-13 12:28N 65°45' E 012°18'4 9.4
2018-Feb-13 12:00N 65°41' E 012°15'5 9.4
2018-Feb-13 11:29N 65°36' E 012°13'5 9.6
2018-Feb-13 10:59N 65°31' E 012°12'3 5.3
2018-Feb-13 10:29N 65°29' E 012°13'0 0.0
2018-Feb-13 09:59N 65°29' E 012°13'4 8.1
2018-Feb-13 09:30N 65°25' E 012°09'5 9.7
2018-Feb-13 09:00N 65°21' E 012°03'510.0
2018-Feb-13 08:30N 65°16' E 011°57'510.1
2018-Feb-13 08:00N 65°12' E 011°52'510.0
2018-Feb-13 07:30N 65°07' E 011°49'510.0
2018-Feb-13 07:00N 65°03' E 011°43'5 9.6
2018-Feb-13 06:30N 64°59' E 011°36'5 9.9
2018-Feb-13 06:00N 64°56' E 011°26'510.1
2018-Feb-13 05:30N 64°53' E 011°18'5 9.9
2018-Feb-13 05:00N 64°49' E 011°09'5 9.9
2018-Feb-13 04:30N 64°46' E 011°01'5 9.6
2018-Feb-13 04:00N 64°42' E 010°53'5 9.7
2018-Feb-13 03:30N 64°39' E 010°45'5 9.8
2018-Feb-13 03:00N 64°35' E 010°39'5 9.7
2018-Feb-13 02:30N 64°30' E 010°34'5 9.1
2018-Feb-13 02:00N 64°27' E 010°27'5 9.3
2018-Feb-13 01:30N 64°22' E 010°28'4 9.0
2018-Feb-13 01:00N 64°18' E 010°23'4 8.8
2018-Feb-13 00:29N 64°15' E 010°17'4 9.0
2018-Feb-13 00:00N 64°11' E 010°10'5 9.0
2018-Feb-12 23:30N 64°08' E 010°04'4 7.7
2018-Feb-12 22:59N 64°04' E 010°02'4 7.5
2018-Feb-12 22:30N 64°01' E 009°58'5 9.0
2018-Feb-12 22:00N 63°57' E 009°54'3 6.7
2018-Feb-12 21:30N 63°53' E 009°52'0 0.0
2018-Feb-12 21:00N 63°53' E 009°52'0 0.0
2018-Feb-12 20:28N 63°53' E 009°52'0 0.0
2018-Feb-12 19:59N 63°53' E 009°52'0 0.0
2018-Feb-12 19:30N 63°53' E 009°52'0 0.0
2018-Feb-12 18:59N 63°53' E 009°52'0 0.0
2018-Feb-12 18:30N 63°53' E 009°52'0 0.0
2018-Feb-12 18:00N 63°53' E 009°52'0 0.0
2018-Feb-12 17:30N 63°53' E 009°52'0 0.0
2018-Feb-12 17:00N 63°53' E 009°52'0 0.0
2018-Feb-12 16:30N 63°53' E 009°52'0 0.0
2018-Feb-12 16:00N 63°53' E 009°52'0 0.4
2018-Feb-12 15:30N 63°53' E 009°53'3 5.8
2018-Feb-12 15:00N 63°53' E 009°47'4 8.8
2018-Feb-12 14:30N 63°50' E 009°38'5 9.3
2018-Feb-12 14:00N 63°46' E 009°33'4 7.1
2018-Feb-12 13:29N 63°45' E 009°41'2 4.5
2018-Feb-12 12:58N 63°46' E 009°46'0 0.0
2018-Feb-12 12:30N 63°46' E 009°46'0 0.0
2018-Feb-12 12:00N 63°46' E 009°46'0 0.0
2018-Feb-12 11:29N 63°46' E 009°46'0 0.0
2018-Feb-12 11:00N 63°46' E 009°46'0 0.0
2018-Feb-12 10:30N 63°46' E 009°46'0 0.0
2018-Feb-12 09:58N 63°46' E 009°46'0 0.0
2018-Feb-12 09:29N 63°46' E 009°46'0 0.0
2018-Feb-12 09:00N 63°46' E 009°46'0 0.0
2018-Feb-12 08:29N 63°46' E 009°46'0 0.0
2018-Feb-12 07:59N 63°46' E 009°46'0 0.2
2018-Feb-12 07:30N 63°46' E 009°45'0 0.0
2018-Feb-12 07:00N 63°46' E 009°45'0 0.0
2018-Feb-12 06:30N 63°46' E 009°45'0 0.0
2018-Feb-12 06:00N 63°46' E 009°45'0 0.0
2018-Feb-12 05:29N 63°46' E 009°45'0 0.0
2018-Feb-12 04:58N 63°46' E 009°45'0 0.0
2018-Feb-12 04:29N 63°46' E 009°45'0 0.0
2018-Feb-12 04:00N 63°46' E 009°45'0 0.0
2018-Feb-12 03:30N 63°46' E 009°45'0 0.0
2018-Feb-12 03:00N 63°46' E 009°45'0 0.0
2018-Feb-12 02:30N 63°46' E 009°45'0 0.0
2018-Feb-12 02:00N 63°46' E 009°45'0 0.0
2018-Feb-12 01:30N 63°46' E 009°45'0 0.0
2018-Feb-12 01:00N 63°46' E 009°45'0 0.0
2018-Feb-12 00:30N 63°46' E 009°45'0 0.0
2018-Feb-12 00:00N 63°46' E 009°45'0 0.0
2018-Feb-11 23:30N 63°46' E 009°45'0 0.0
2018-Feb-11 23:00N 63°46' E 009°45'0 0.0
2018-Feb-11 22:30N 63°46' E 009°45'0 0.0
2018-Feb-11 21:59N 63°46' E 009°45'0 0.0
2018-Feb-11 21:30N 63°46' E 009°45'0 0.0
2018-Feb-11 21:00N 63°46' E 009°45'0 0.0
2018-Feb-11 20:30N 63°46' E 009°45'0 0.0
2018-Feb-11 20:00N 63°46' E 009°45'0 0.0
2018-Feb-11 19:30N 63°46' E 009°45'0 0.0
2018-Feb-11 18:58N 63°46' E 009°45'0 0.0
2018-Feb-11 18:30N 63°46' E 009°45'0 0.0
2018-Feb-11 17:59N 63°46' E 009°45'0 0.0
2018-Feb-11 17:30N 63°46' E 009°45'0 0.0
2018-Feb-11 17:00N 63°46' E 009°45'0 0.0
2018-Feb-11 16:29N 63°46' E 009°45'0 0.0
2018-Feb-11 15:59N 63°46' E 009°45'0 0.0
2018-Feb-11 15:30N 63°46' E 009°45'0 0.0
2018-Feb-11 15:00N 63°46' E 009°45'0 0.0
2018-Feb-11 14:30N 63°46' E 009°45'0 0.0
2018-Feb-11 14:00N 63°46' E 009°45'2 3.9
2018-Feb-11 13:29N 63°45' E 009°41'4 8.1
2018-Feb-11 13:00N 63°46' E 009°32'5 8.9
2018-Feb-11 12:30N 63°50' E 009°37'4 8.8
2018-Feb-11 12:00N 63°53' E 009°45'4 6.9
2018-Feb-11 11:29N 63°54' E 009°53'0 0.7
2018-Feb-11 10:59N 63°53' E 009°52'0 0.0
2018-Feb-11 10:30N 63°53' E 009°52'0 0.0
2018-Feb-11 09:59N 63°53' E 009°52'0 0.0
2018-Feb-11 09:30N 63°53' E 009°52'0 0.0
2018-Feb-11 09:00N 63°53' E 009°52'0 0.0
2018-Feb-11 08:29N 63°53' E 009°52'0 0.0
2018-Feb-11 08:00N 63°53' E 009°52'0 0.0
2018-Feb-11 07:30N 63°53' E 009°52'0 0.0
2018-Feb-11 06:59N 63°53' E 009°52'0 0.0
2018-Feb-11 06:30N 63°53' E 009°52'0 0.0
2018-Feb-11 06:00N 63°53' E 009°52'0 0.0
2018-Feb-11 05:29N 63°53' E 009°52'0 0.1
2018-Feb-11 04:59N 63°53' E 009°52'3 6.1
2018-Feb-11 04:30N 63°56' E 009°54'4 8.4
2018-Feb-11 04:00N 64°00' E 009°57'4 8.0
2018-Feb-11 03:30N 64°03' E 010°03'3 7.1
2018-Feb-11 03:00N 64°07' E 010°02'4 8.5
2018-Feb-11 02:30N 64°10' E 010°08'  

Dump ship's entire track history